Time;durP1;ratioP1;P1;durP2;ratioP2;P2;SDS_P1;SDS_P2;PMS_P1;PMS_P2;Temp;Humidity;BMP_temperature;BMP_pressure;BME280_temperature;BME280_humidity;BME280_pressure;Samples;Min_cycle;Max_cycle;Signal;HPM_P1;HPM_P2
2021/09/14 00:00:42;;;;;;;11.87;8.77;;;;;;;12.21;98.97;101434.19;2090339;28;20017;-65
2021/09/14 00:01:42;;;;;;;13.83;10.27;;;;;;;12.20;98.51;101437.75;2090589;28;20032;-65
2021/09/14 00:02:42;;;;;;;12.65;8.60;;;;;;;12.20;98.98;101435.13;2091129;28;20028;-66
2021/09/14 00:03:42;;;;;;;15.00;8.10;;;;;;;12.18;98.74;101435.19;2091185;28;20013;-65
2021/09/14 00:04:43;;;;;;;11.70;8.17;;;;;;;12.18;98.53;101432.56;2091137;28;20096;-65
2021/09/14 00:05:43;;;;;;;11.33;9.03;;;;;;;12.17;98.70;101432.63;2091126;28;20027;-66
2021/09/14 00:06:43;;;;;;;12.70;10.00;;;;;;;12.18;99.26;101439.59;2090407;28;20036;-65
2021/09/14 00:07:43;;;;;;;14.27;10.37;;;;;;;12.14;98.76;101432.78;2090659;28;20032;-67
2021/09/14 00:08:44;;;;;;;11.60;8.20;;;;;;;12.12;98.94;101430.22;2091100;28;20120;-65
2021/09/14 00:09:44;;;;;;;12.23;8.63;;;;;;;12.14;98.95;101432.78;2091090;28;20535;-66
2021/09/14 00:10:44;;;;;;;11.17;8.40;;;;;;;12.12;98.53;101429.34;2091299;28;20043;-66
2021/09/14 00:11:45;;;;;;;12.40;7.37;;;;;;;12.10;99.25;101425.03;2091007;28;20359;-67
2021/09/14 00:12:45;;;;;;;11.97;9.27;;;;;;;12.08;98.63;101420.78;2091166;28;20025;-66
2021/09/14 00:13:46;;;;;;;11.05;8.70;;;;;;;12.05;98.73;101416.47;2090350;28;20048;-65
2021/09/14 00:14:46;;;;;;;14.27;8.90;;;;;;;12.06;99.00;101420.84;2082131;28;20120;-65
2021/09/14 00:15:46;;;;;;;12.83;6.87;;;;;;;12.05;99.16;101424.31;2090626;28;20271;-65
2021/09/14 00:16:47;;;;;;;14.47;7.87;;;;;;;12.04;98.87;101422.63;2091147;28;20031;-65
2021/09/14 00:17:47;;;;;;;15.53;8.03;;;;;;;12.03;99.33;101420.91;2091065;28;20029;-66
2021/09/14 00:18:47;;;;;;;12.60;8.27;;;;;;;12.03;99.15;101420.91;2091022;28;20017;-65
2021/09/14 00:19:47;;;;;;;14.30;8.47;;;;;;;12.04;98.96;101424.41;2090965;28;20017;-65
2021/09/14 00:20:48;;;;;;;14.70;9.40;;;;;;;12.05;98.92;101421.69;2098533;28;20119;-66
2021/09/14 00:21:48;;;;;;;12.53;8.23;;;;;;;12.05;99.02;101418.25;2099328;28;20113;-66
2021/09/14 00:22:48;;;;;;;11.57;7.97;;;;;;;12.05;99.15;101426.09;2099181;28;20033;-65
2021/09/14 00:23:49;;;;;;;15.27;10.57;;;;;;;12.05;98.96;101429.53;2099267;28;20047;-65
2021/09/14 00:24:49;;;;;;;15.17;9.97;;;;;;;12.04;98.93;101427.84;2099089;28;20032;-66
2021/09/14 00:25:49;;;;;;;14.47;9.03;;;;;;;12.03;99.11;101420.91;2099166;28;20442;-65
2021/09/14 00:26:49;;;;;;;13.77;10.00;;;;;;;11.99;99.26;101419.34;2099216;28;20028;-66
2021/09/14 00:27:50;;;;;;;14.13;10.53;;;;;;;11.97;98.93;101427.25;2090259;28;20025;-65
2021/09/14 00:28:50;;;;;;;17.10;9.53;;;;;;;11.97;99.45;101426.38;2090425;28;20025;-65
2021/09/14 00:29:50;;;;;;;15.37;9.53;;;;;;;11.97;99.05;101422.00;2099082;28;20020;-66
2021/09/14 00:30:50;;;;;;;12.30;8.80;;;;;;;11.97;99.10;101431.63;2099179;28;20052;-66
2021/09/14 00:31:51;;;;;;;13.50;8.27;;;;;;;11.96;98.75;101419.44;2099228;28;20024;-66
2021/09/14 00:32:51;;;;;;;11.97;8.23;;;;;;;11.94;99.04;101421.28;2099196;28;20054;-66
2021/09/14 00:33:51;;;;;;;12.53;7.90;;;;;;;11.93;99.11;101417.81;2099122;28;20039;-66
2021/09/14 00:34:52;;;;;;;14.13;9.77;;;;;;;11.92;99.33;101423.97;2099054;28;20028;-66
2021/09/14 00:35:52;;;;;;;13.57;8.93;;;;;;;11.90;99.12;101419.72;2098843;28;20078;-66
2021/09/14 00:36:52;;;;;;;12.17;8.33;;;;;;;11.89;99.53;101421.47;2089429;28;20072;-66
2021/09/14 00:37:53;;;;;;;12.57;8.63;;;;;;;11.89;99.42;101424.06;2090230;28;20053;-66
2021/09/14 00:38:53;;;;;;;14.25;10.85;;;;;;;11.88;99.37;101424.13;2099104;28;20028;-66
2021/09/14 00:39:53;;;;;;;13.77;9.07;;;;;;;11.89;99.35;101428.44;2090071;28;20462;-67
2021/09/14 00:40:54;;;;;;;13.27;11.10;;;;;;;11.88;99.37;101424.13;2090256;28;20363;-66
2021/09/14 00:41:54;;;;;;;13.33;9.50;;;;;;;11.88;99.65;101416.28;2099036;28;20024;-66
2021/09/14 00:42:54;;;;;;;13.20;8.77;;;;;;;11.86;99.11;101424.19;2099102;28;20490;-66
2021/09/14 00:44:00;;;;;;;12.83;11.17;;;;;;;11.87;99.63;101420.66;2098993;28;20158;-66
2021/09/14 00:45:01;;;;;;;14.48;10.68;;;;;;;11.85;99.38;101418.09;2099091;28;20025;-64
2021/09/14 00:46:01;;;;;;;11.35;9.95;;;;;;;11.84;99.51;101421.63;2099113;28;20024;-65
2021/09/14 00:47:01;;;;;;;13.93;10.50;;;;;;;11.84;99.05;101415.56;2099124;28;20378;-65
2021/09/14 00:48:02;;;;;;;17.70;11.53;;;;;;;11.82;99.64;101418.25;2099041;28;20021;-66
2021/09/14 00:49:02;;;;;;;15.80;9.20;;;;;;;11.82;98.87;101413.00;2098894;28;20278;-66
2021/09/14 00:50:05;;;;;;;14.48;9.38;;;;;;;11.80;99.87;101413.97;2090002;28;20028;-66
2021/09/14 00:51:05;;;;;;;12.30;8.65;;;;;;;11.78;99.27;101416.66;2090288;28;20024;-66
2021/09/14 00:52:08;;;;;;;13.47;8.93;;;;;;;11.76;99.09;101410.63;2099029;28;20063;-66
2021/09/14 00:53:09;;;;;;;14.73;9.15;;;;;;;11.75;99.77;101411.53;2089995;28;20076;-66
2021/09/14 00:54:13;;;;;;;;;;;;;;;11.75;99.11;101414.16;2090711;28;20422;-66
2021/09/14 00:55:13;;;;;;;12.63;8.02;;;;;;;11.73;99.60;101410.72;2098899;28;20003;-66
2021/09/14 00:56:17;;;;;;;12.70;8.47;;;;;;;11.73;99.27;101418.56;2098905;28;20025;-65
2021/09/14 00:57:18;;;;;;;12.10;8.10;;;;;;;11.74;99.45;101403.75;2099061;28;20024;-65
2021/09/14 00:58:18;;;;;;;12.63;9.30;;;;;;;11.74;99.46;101414.22;2098856;28;20029;-66
2021/09/14 00:59:18;;;;;;;12.80;9.23;;;;;;;11.73;99.22;101413.34;2098902;28;20031;-66
2021/09/14 01:00:19;;;;;;;14.07;11.50;;;;;;;11.73;99.23;101413.34;2089734;28;20075;-65
2021/09/14 01:01:19;;;;;;;11.87;10.13;;;;;;;11.69;99.72;101414.38;2089923;28;20025;-65
2021/09/14 01:02:19;;;;;;;17.97;9.97;;;;;;;11.69;99.86;101411.75;2089896;28;20029;-66
2021/09/14 01:03:20;;;;;;;16.50;11.40;;;;;;;11.69;99.14;101412.63;2099029;28;20025;-65
2021/09/14 01:04:20;;;;;;;15.50;12.10;;;;;;;11.68;99.56;101413.53;2089988;28;20032;-65
2021/09/14 01:05:21;;;;;;;15.60;10.98;;;;;;;11.67;99.73;101418.81;2090009;28;20104;-65
2021/09/14 01:06:21;;;;;;;14.05;9.45;;;;;;;11.65;99.26;101411.03;2098848;28;20098;-65
2021/09/14 01:07:22;;;;;;;14.33;10.10;;;;;;;11.64;99.50;101408.47;2098996;28;20070;-65
2021/09/14 01:08:24;;;;;;;10.80;9.55;;;;;;;11.61;99.79;101414.69;2098805;28;20031;-66
2021/09/14 01:09:24;;;;;;;13.00;8.43;;;;;;;11.59;100.00;101412.13;2098797;28;20506;-65
2021/09/14 01:10:25;;;;;;;15.18;8.40;;;;;;;11.60;99.29;101418.19;2098927;28;20013;-65
2021/09/14 01:11:25;;;;;;;13.03;9.37;;;;;;;11.60;99.76;101410.34;2098817;28;20097;-66
2021/09/14 01:12:26;;;;;;;16.00;9.67;;;;;;;11.58;99.21;101410.41;2098759;28;20267;-66
2021/09/14 01:13:26;;;;;;;10.45;8.15;;;;;;;11.58;99.48;101412.16;2098930;28;20021;-65
2021/09/14 01:14:27;;;;;;;16.20;9.70;;;;;;;11.59;99.54;101412.13;2098701;28;20045;-66
2021/09/14 01:15:27;;;;;;;12.83;9.10;;;;;;;11.59;99.72;101413.88;2098792;28;20012;-65
2021/09/14 01:16:29;;;;;;;14.00;9.13;;;;;;;11.58;99.64;101410.41;2089860;28;20031;-65
2021/09/14 01:17:29;;;;;;;11.88;8.68;;;;;;;11.57;99.61;101408.69;2090111;28;20017;-66
2021/09/14 01:18:29;;;;;;;12.53;8.53;;;;;;;11.58;99.47;101420.00;2089808;28;20405;-65
2021/09/14 01:19:30;;;;;;;15.50;10.90;;;;;;;11.58;99.87;101406.94;2089946;28;20116;-66
2021/09/14 01:20:30;;;;;;;13.90;9.90;;;;;;;11.54;99.97;101414.06;2098474;28;20127;-66
2021/09/14 01:21:31;;;;;;;17.77;10.85;;;;;;;11.52;99.35;101402.78;2098667;28;20016;-66
2021/09/14 01:22:33;;;;;;;12.30;10.20;;;;;;;11.53;99.81;101414.94;2098738;28;20025;-65
2021/09/14 01:23:33;;;;;;;14.63;11.00;;;;;;;11.52;99.96;101410.63;2098733;28;20024;-66
2021/09/14 01:24:34;;;;;;;13.67;9.63;;;;;;;11.50;100.00;101401.16;2098599;28;20165;-65
2021/09/14 01:25:34;;;;;;;14.47;9.30;;;;;;;11.50;99.63;101407.22;2089818;28;20087;-66
2021/09/14 01:26:36;;;;;;;13.10;10.07;;;;;;;11.49;99.92;101399.47;2089798;28;20028;-66
2021/09/14 01:27:36;;;;;;;19.50;10.45;;;;;;;11.48;99.66;101403.81;2098707;28;20055;-65
2021/09/14 01:28:36;;;;;;;15.77;10.63;;;;;;;11.48;100.00;101401.22;2098630;28;20416;-65
2021/09/14 01:30:56;;;;;;;13.73;10.55;;;;;;;11.45;99.91;101396.09;2092467;28;20025;-66
2021/09/14 01:31:56;;;;;;;15.40;11.07;;;;;;;11.43;99.81;101396.16;2098592;28;20021;-65
2021/09/14 01:32:56;;;;;;;15.20;9.10;;;;;;;11.43;99.77;101401.38;2098818;28;20126;-66
2021/09/14 01:33:57;;;;;;;11.53;8.67;;;;;;;11.42;99.72;101398.81;2098638;28;20363;-66
2021/09/14 01:35:07;;;;;;;15.40;9.43;;;;;;;11.42;100.00;101398.81;2089702;28;20031;-66
2021/09/14 01:36:07;;;;;;;14.30;10.70;;;;;;;11.40;99.97;101395.41;2091102;28;20053;-66
2021/09/14 01:37:08;;;;;;;17.73;9.90;;;;;;;11.39;99.59;101393.72;2098620;28;20028;-65
2021/09/14 01:38:08;;;;;;;17.97;9.50;;;;;;;11.36;99.30;101394.66;2098626;28;20032;-66
2021/09/14 01:39:08;;;;;;;16.77;10.07;;;;;;;11.36;99.65;101399.88;2098605;28;20077;-66
2021/09/14 01:40:09;;;;;;;16.20;10.13;;;;;;;11.37;100.00;101403.38;2089493;28;20029;-65
2021/09/14 01:41:10;;;;;;;14.68;10.07;;;;;;;11.35;99.77;101392.13;2089654;28;20029;-66
2021/09/14 01:42:10;;;;;;;16.70;11.02;;;;;;;11.36;100.00;101392.06;2098496;28;20024;-66
2021/09/14 01:43:10;;;;;;;14.67;9.53;;;;;;;11.37;100.00;101392.91;2098622;28;20100;-66
2021/09/14 01:44:11;;;;;;;18.37;10.93;;;;;;;11.38;99.94;101394.59;2098443;28;20025;-65
2021/09/14 01:45:12;;;;;;;13.10;10.60;;;;;;;11.37;99.74;101398.13;2098495;28;20020;-66
2021/09/14 01:46:13;;;;;;;21.23;12.23;;;;;;;11.37;100.00;101390.31;2098455;28;20020;-66
2021/09/14 01:47:13;;;;;;;14.85;10.45;;;;;;;11.38;100.00;101392.00;2098487;28;20112;-67
2021/09/14 01:48:13;;;;;;;12.87;11.50;;;;;;;11.37;99.84;101387.69;2098402;28;20029;-66
2021/09/14 01:49:14;;;;;;;14.23;9.77;;;;;;;11.36;100.00;101388.59;2098347;28;20075;-67
2021/09/14 01:50:16;;;;;;;15.67;12.27;;;;;;;11.37;99.96;101396.38;2098653;28;20025;-67
2021/09/14 01:51:16;;;;;;;14.40;11.38;;;;;;;11.38;100.00;101386.78;2098525;28;20016;-67
2021/09/14 01:52:17;;;;;;;16.53;11.83;;;;;;;11.37;100.00;101387.69;2098676;28;20445;-66
2021/09/14 01:53:17;;;;;;;17.73;12.33;;;;;;;11.38;99.75;101386.78;2089661;28;20156;-66
2021/09/14 01:54:17;;;;;;;19.70;11.17;;;;;;;11.37;99.97;101390.31;2089715;28;20075;-66
2021/09/14 01:55:19;;;;;;;14.30;10.63;;;;;;;11.36;100.00;101388.59;2098501;28;20024;-67
2021/09/14 01:56:19;;;;;;;15.68;12.80;;;;;;;11.35;99.99;101386.91;2098531;28;20392;-66
2021/09/14 01:57:22;;;;;;;14.27;9.27;;;;;;;11.35;99.88;101379.06;2098500;28;20020;-66
2021/09/14 01:58:22;;;;;;;14.32;10.15;;;;;;;11.34;100.00;101380.81;2098468;28;20031;-65
2021/09/14 01:59:23;;;;;;;14.40;9.73;;;;;;;11.35;100.00;101382.50;2098535;28;20020;-67
2021/09/14 02:00:26;;;;;;;13.95;10.45;;;;;;;11.35;100.00;101387.75;2098360;28;20274;-66
2021/09/14 02:01:34;;;;;;;14.18;10.15;;;;;;;11.33;100.00;101379.94;2098329;28;20449;-67
2021/09/14 02:03:57;;;;;;;16.33;11.15;;;;;;;11.36;100.00;101383.38;2091257;28;20047;-65
2021/09/14 02:05:03;;;;;;;16.40;12.55;;;;;;;11.36;100.00;101388.59;2098371;28;20440;-66
2021/09/14 02:06:24;;;;;;;16.95;10.45;;;;;;;11.33;100.00;101382.56;2098395;28;20486;-67
2021/09/14 02:08:48;;;;;;;13.40;9.43;;;;;;;11.29;100.00;101383.59;2098523;28;20071;-66
2021/09/14 02:40:22;;;;;;;16.38;11.02;;;;;;;11.15;100.00;101365.81;2098252;28;20024;-66
2021/09/14 02:58:50;;;;;;;18.35;13.15;;;;;;;11.04;99.88;101345.31;2097354;28;20036;-66
2021/09/14 02:59:50;;;;;;;18.48;11.98;;;;;;;11.04;100.00;101347.94;2098880;28;20024;-66
2021/09/14 03:00:51;;;;;;;20.17;12.77;;;;;;;11.06;100.00;101340.03;2099704;28;20043;-65
2021/09/14 03:01:51;;;;;;;18.17;13.47;;;;;;;11.05;100.00;101344.41;2099732;28;20028;-65
2021/09/14 03:02:51;;;;;;;19.30;12.07;;;;;;;11.04;100.00;101340.09;2091013;28;20036;-66
2021/09/14 03:03:54;;;;;;;21.23;13.17;;;;;;;11.04;100.00;101342.69;2091004;28;20501;-66
2021/09/14 03:04:54;;;;;;;20.13;13.27;;;;;;;11.06;100.00;101337.44;2090892;28;20039;-65
2021/09/14 03:05:54;;;;;;;20.67;12.90;;;;;;;11.05;100.00;101339.19;2090959;28;20237;-65
2021/09/14 03:06:54;;;;;;;17.80;12.90;;;;;;;11.04;100.00;101337.47;2099763;28;20038;-65
2021/09/14 03:07:55;;;;;;;18.90;13.63;;;;;;;11.03;100.00;101335.78;2099747;28;20527;-65
2021/09/14 03:08:55;;;;;;;19.97;12.93;;;;;;;11.04;100.00;101339.22;2099892;28;20020;-65
2021/09/14 03:09:55;;;;;;;24.87;15.63;;;;;;;11.04;100.00;101340.09;2099756;28;20023;-65
2021/09/14 03:10:55;;;;;;;20.83;13.00;;;;;;;11.04;100.00;101341.84;2099746;28;20082;-65
2021/09/14 03:11:56;;;;;;;21.23;13.00;;;;;;;11.04;100.00;101347.06;2099669;28;20477;-65
2021/09/14 03:12:56;;;;;;;16.43;13.87;;;;;;;11.03;100.00;101334.91;2090819;28;20045;-66
2021/09/14 03:13:56;;;;;;;16.93;12.47;;;;;;;11.02;99.99;101339.28;2090700;28;20025;-65
2021/09/14 03:14:57;;;;;;;21.37;12.73;;;;;;;11.03;100.00;101342.75;2099818;28;20031;-65
2021/09/14 03:15:57;;;;;;;22.07;12.40;;;;;;;11.02;100.00;101336.66;2099773;28;20023;-65
2021/09/14 03:16:57;;;;;;;21.33;11.90;;;;;;;10.99;100.00;101334.19;2099771;28;20385;-65
2021/09/14 03:17:57;;;;;;;17.67;12.30;;;;;;;10.99;100.00;101334.19;2099893;28;20383;-65
2021/09/14 03:18:58;;;;;;;19.27;12.63;;;;;;;10.97;100.00;101330.78;2090893;28;20471;-65
2021/09/14 03:19:58;;;;;;;17.20;11.48;;;;;;;10.96;100.00;101334.31;2082343;28;20029;-66
2021/09/14 03:20:59;;;;;;;17.03;12.30;;;;;;;10.97;100.00;101329.91;2090942;28;20035;-65
2021/09/14 03:21:59;;;;;;;18.13;12.23;;;;;;;10.95;100.00;101327.38;2099785;28;20028;-65
2021/09/14 03:23:00;;;;;;;17.33;12.53;;;;;;;10.95;100.00;101316.94;2099957;28;20039;-67
2021/09/14 03:24:00;;;;;;;18.37;13.03;;;;;;;10.95;100.00;101314.31;2099763;28;20025;-66
2021/09/14 03:25:00;;;;;;;17.70;12.27;;;;;;;10.94;100.00;101316.06;2099752;28;20462;-65
2021/09/14 03:26:01;;;;;;;16.40;11.20;;;;;;;10.94;100.00;101312.59;2090771;28;20023;-66
2021/09/14 03:27:01;;;;;;;18.77;12.75;;;;;;;10.93;100.00;101319.59;2090740;28;20035;-66
2021/09/14 03:28:01;;;;;;;21.03;12.70;;;;;;;10.92;100.00;101311.81;2099729;28;20031;-67
2021/09/14 03:29:02;;;;;;;19.57;13.13;;;;;;;10.91;100.00;101310.09;2099627;28;20048;-66
2021/09/14 03:30:04;;;;;;;20.57;12.80;;;;;;;10.90;100.00;101304.03;2099803;28;20026;-66
2021/09/14 03:31:05;;;;;;;18.38;12.05;;;;;;;10.90;100.00;101313.63;2099768;28;20054;-66
2021/09/14 03:32:05;;;;;;;17.63;12.30;;;;;;;10.88;100.00;101305.00;2099787;28;20035;-67
2021/09/14 03:33:06;;;;;;;22.50;13.93;;;;;;;10.87;100.00;101304.13;2099755;28;20568;-67
2021/09/14 03:34:06;;;;;;;19.20;12.63;;;;;;;10.87;100.00;101303.28;2099647;28;20027;-67
2021/09/14 03:35:07;;;;;;;18.70;11.80;;;;;;;10.87;100.00;101291.09;2099636;28;20548;-66
2021/09/14 03:36:07;;;;;;;22.20;13.20;;;;;;;10.86;100.00;101293.75;2090835;28;20459;-66
2021/09/14 03:37:07;;;;;;;21.33;12.67;;;;;;;10.85;100.00;101290.31;2090863;28;20025;-66
2021/09/14 03:38:08;;;;;;;17.87;11.67;;;;;;;10.85;100.00;101294.66;2090683;28;20061;-66
2021/09/14 03:39:08;;;;;;;22.92;14.00;;;;;;;10.85;100.00;101300.75;2090829;28;20150;-66
2021/09/14 03:40:09;;;;;;;19.00;12.43;;;;;;;10.85;100.00;101289.44;2099583;28;20016;-66
2021/09/14 03:41:09;;;;;;;18.17;12.73;;;;;;;10.87;100.00;101292.84;2099696;28;20032;-66
2021/09/14 03:42:09;;;;;;;17.00;12.10;;;;;;;10.88;100.00;101299.78;2099613;28;20028;-66
2021/09/14 03:43:12;;;;;;;17.80;12.20;;;;;;;10.88;100.00;101300.63;2099658;28;20086;-66
2021/09/14 03:44:13;;;;;;;20.73;13.10;;;;;;;10.88;100.00;101298.00;2099589;28;20024;-66
2021/09/14 03:45:13;;;;;;;17.80;12.80;;;;;;;10.88;100.00;101305.00;2099617;28;20474;-66
2021/09/14 03:46:14;;;;;;;18.60;13.30;;;;;;;10.86;100.00;101304.19;2099568;28;20016;-66
2021/09/14 03:47:14;;;;;;;21.43;14.50;;;;;;;10.87;100.00;101303.28;2099386;28;20024;-66
2021/09/14 03:48:15;;;;;;;19.13;14.20;;;;;;;10.86;100.00;101310.28;2099470;28;20034;-66
2021/09/14 03:49:15;;;;;;;22.65;14.32;;;;;;;10.85;100.00;101311.19;2099501;28;20024;-67
2021/09/14 03:50:15;;;;;;;18.97;12.60;;;;;;;10.85;100.00;101315.56;2099471;28;20043;-66
2021/09/14 03:51:16;;;;;;;19.33;13.55;;;;;;;10.82;100.00;101306.91;2099418;28;20040;-65
2021/09/14 03:52:16;;;;;;;24.60;14.17;;;;;;;10.86;100.00;101312.03;2099481;28;20163;-66
2021/09/14 03:53:16;;;;;;;17.73;12.97;;;;;;;10.86;100.00;101309.41;2099502;28;20024;-66
2021/09/14 03:54:17;;;;;;;18.63;12.47;;;;;;;10.82;100.00;101312.13;2099504;28;20021;-66
2021/09/14 03:55:17;;;;;;;18.95;13.10;;;;;;;10.81;100.00;101309.56;2099474;28;20098;-65
2021/09/14 03:56:17;;;;;;;19.07;13.13;;;;;;;10.79;100.00;101301.81;2099515;28;20299;-66
2021/09/14 03:57:17;;;;;;;18.17;11.93;;;;;;;10.78;100.00;101305.31;2090593;28;20024;-66
2021/09/14 03:58:18;;;;;;;19.47;13.83;;;;;;;10.78;100.00;101305.31;2082335;28;20018;-65
2021/09/14 03:59:18;;;;;;;18.93;13.07;;;;;;;10.79;100.00;101309.66;2090475;28;20390;-67
2021/09/14 04:00:19;;;;;;;20.83;13.10;;;;;;;10.76;100.00;101309.75;2090474;28;20021;-66
2021/09/14 04:01:19;;;;;;;18.48;13.55;;;;;;;10.75;100.00;101318.50;2099491;28;20028;-66
2021/09/14 04:03:37;;;;;;;19.55;12.70;;;;;;;10.75;100.00;101320.25;2099528;28;20147;-65
2021/09/14 04:05:06;;;;;;;21.00;14.38;;;;;;;10.73;100.00;101322.91;2099409;28;20023;-65
2021/09/14 04:07:50;;;;;;;19.95;14.80;;;;;;;10.73;100.00;101312.47;2094036;28;20040;-65
2021/09/14 04:08:54;;;;;;;18.35;15.25;;;;;;;10.72;100.00;101316.00;2099206;28;20107;-66
2021/09/14 04:09:54;;;;;;;21.48;15.35;;;;;;;10.69;100.00;101311.75;2099180;28;20036;-66
2021/09/14 04:10:56;;;;;;;21.43;17.07;;;;;;;10.69;100.00;101305.66;2099260;28;20115;-65
2021/09/14 04:11:57;;;;;;;18.92;13.88;;;;;;;10.67;100.00;101305.72;2099390;28;20044;-66
2021/09/14 04:12:57;;;;;;;20.07;13.37;;;;;;;10.67;100.00;101300.50;2099294;28;20107;-66
2021/09/14 04:13:57;;;;;;;20.63;14.47;;;;;;;10.67;100.00;101297.00;2099118;28;20032;-66
2021/09/14 04:14:58;;;;;;;18.20;13.02;;;;;;;10.67;100.00;101302.25;2090263;28;20021;-65
2021/09/14 04:15:58;;;;;;;20.90;14.77;;;;;;;10.66;100.00;101305.75;2090455;28;20159;-65
2021/09/14 04:16:58;;;;;;;19.30;14.77;;;;;;;10.65;100.00;101302.31;2099117;28;20032;-66
2021/09/14 04:17:59;;;;;;;23.13;14.03;;;;;;;10.64;100.00;101302.38;2099299;28;20032;-65
2021/09/14 04:18:59;;;;;;;22.03;13.67;;;;;;;10.62;100.00;101299.81;2099293;28;20026;-65
2021/09/14 04:19:59;;;;;;;25.63;15.37;;;;;;;10.63;100.00;101305.84;2098956;28;20028;-65
2021/09/14 04:20:59;;;;;;;20.77;14.93;;;;;;;10.60;100.00;101295.56;2099133;28;20035;-65
2021/09/14 04:22:00;;;;;;;20.00;13.83;;;;;;;10.59;100.00;101294.69;2090161;28;20029;-66
2021/09/14 04:23:00;;;;;;;19.53;15.33;;;;;;;10.60;100.00;101290.34;2090373;28;20032;-66
2021/09/14 04:24:00;;;;;;;17.70;15.77;;;;;;;10.61;100.00;101295.47;2099249;28;20091;-65
2021/09/14 04:25:00;;;;;;;21.50;13.80;;;;;;;10.61;100.00;101289.41;2099088;28;20013;-66
2021/09/14 04:26:01;;;;;;;19.97;14.63;;;;;;;10.60;100.00;101296.38;2099027;28;20528;-66
2021/09/14 04:27:01;;;;;;;21.87;14.60;;;;;;;10.61;100.00;101297.25;2099363;28;20545;-66
2021/09/14 04:28:01;;;;;;;23.10;15.10;;;;;;;10.62;100.00;101299.81;2090207;28;20048;-65
2021/09/14 04:29:02;;;;;;;22.47;16.93;;;;;;;10.62;100.00;101291.97;2090202;28;20156;-65
2021/09/14 04:30:05;;;;;;;21.00;15.17;;;;;;;10.62;100.00;101297.19;2099203;28;20024;-64
2021/09/14 04:31:05;;;;;;;22.90;13.45;;;;;;;10.62;100.00;101298.94;2099217;28;20062;-65
2021/09/14 04:32:05;;;;;;;19.30;14.10;;;;;;;10.61;100.00;101302.47;2099288;28;20532;-64
2021/09/14 04:33:06;;;;;;;20.15;13.80;;;;;;;10.59;100.00;101304.28;2099202;28;20070;-65
2021/09/14 04:34:06;;;;;;;20.87;15.27;;;;;;;10.62;100.00;101306.78;2099017;28;20274;-64
2021/09/14 04:35:07;;;;;;;20.43;15.63;;;;;;;10.63;100.00;101301.50;2099026;28;20108;-65
2021/09/14 04:36:07;;;;;;;19.30;13.95;;;;;;;10.63;100.00;101300.63;2099167;28;20027;-64
2021/09/14 04:37:07;;;;;;;20.87;14.10;;;;;;;10.64;100.00;101297.16;2099129;28;20043;-64
2021/09/14 04:38:08;;;;;;;22.53;15.10;;;;;;;10.63;100.00;101305.84;2099037;28;20492;-63
2021/09/14 04:39:08;;;;;;;22.00;15.82;;;;;;;10.64;100.00;101302.38;2099020;28;20025;-64
2021/09/14 04:40:09;;;;;;;20.80;16.23;;;;;;;10.63;100.00;101295.41;2099051;28;20099;-64
2021/09/14 04:41:09;;;;;;;19.20;13.93;;;;;;;10.63;100.00;101282.38;2099018;28;20063;-64
2021/09/14 04:42:10;;;;;;;21.30;13.67;;;;;;;10.63;100.00;101290.19;2099172;28;20055;-64
2021/09/14 04:43:10;;;;;;;22.33;14.60;;;;;;;10.62;100.00;101284.16;2099132;28;20025;-64
2021/09/14 04:44:10;;;;;;;19.77;13.47;;;;;;;10.61;100.00;101284.19;2099027;28;20028;-64
2021/09/14 04:45:11;;;;;;;21.30;16.03;;;;;;;10.63;100.00;101295.41;2098953;28;20090;-65
2021/09/14 04:46:12;;;;;;;21.42;16.70;;;;;;;10.64;100.00;101284.94;2098912;28;20358;-64
2021/09/14 04:47:12;;;;;;;21.47;13.43;;;;;;;10.64;100.00;101284.09;2098989;28;20033;-65
2021/09/14 04:48:12;;;;;;;21.03;15.90;;;;;;;10.65;100.00;101293.63;2098932;28;20100;-65
2021/09/14 04:49:13;;;;;;;35.80;19.13;;;;;;;10.67;100.00;101290.06;2099129;28;20104;-64
2021/09/14 04:50:13;;;;;;;25.37;16.17;;;;;;;10.68;100.00;101290.91;2089800;28;20087;-64
2021/09/14 04:51:13;;;;;;;23.43;15.53;;;;;;;10.66;100.00;101290.97;2090058;28;20493;-65
2021/09/14 04:52:14;;;;;;;18.33;13.60;;;;;;;10.64;100.00;101287.53;2099115;28;20025;-64
2021/09/14 04:53:14;;;;;;;18.33;15.23;;;;;;;10.65;100.00;101301.44;2098987;28;20032;-65
2021/09/14 04:54:14;;;;;;;23.07;14.97;;;;;;;10.67;100.00;101291.78;2099036;28;20028;-64
2021/09/14 04:55:14;;;;;;;20.37;14.37;;;;;;;10.67;100.00;101291.78;2098869;28;20032;-64
2021/09/14 04:56:15;;;;;;;20.50;15.97;;;;;;;10.70;100.00;101299.53;2098932;28;20028;-64
2021/09/14 04:57:15;;;;;;;21.57;14.93;;;;;;;10.69;100.00;101290.00;2098887;28;20082;-64
2021/09/14 04:58:15;;;;;;;20.93;15.40;;;;;;;10.68;100.00;101298.75;2098846;28;20031;-64
2021/09/14 04:59:16;;;;;;;23.02;14.68;;;;;;;10.70;100.00;101312.56;2098948;28;20496;-64
2021/09/14 05:00:16;;;;;;;18.97;15.10;;;;;;;10.71;100.00;101311.66;2089871;28;20582;-65
2021/09/14 05:01:17;;;;;;;21.20;14.57;;;;;;;10.69;100.00;101305.66;2090073;28;20025;-63
2021/09/14 05:02:17;;;;;;;24.42;15.77;;;;;;;10.68;100.00;101306.56;2089886;28;20017;-64
2021/09/14 05:03:18;;;;;;;22.27;13.80;;;;;;;10.68;100.00;101296.13;2099049;28;20028;-63
2021/09/14 05:04:19;;;;;;;18.27;12.73;;;;;;;10.68;100.00;101301.34;2099010;28;20103;-63
2021/09/14 05:05:21;;;;;;;21.30;14.32;;;;;;;10.67;100.00;101287.44;2098922;28;20040;-64
2021/09/14 05:06:21;;;;;;;20.63;14.55;;;;;;;10.68;100.00;101288.31;2098861;28;20039;-65
2021/09/14 05:07:21;;;;;;;21.93;15.23;;;;;;;10.66;100.00;101293.56;2099071;28;20101;-64
2021/09/14 05:08:21;;;;;;;20.17;13.93;;;;;;;10.66;100.00;101290.09;2098939;28;20063;-64
2021/09/14 05:09:21;;;;;;;20.57;13.13;;;;;;;10.66;100.00;101285.75;2099010;28;20458;-65
2021/09/14 05:10:22;;;;;;;20.20;13.67;;;;;;;10.65;100.00;101288.41;2098903;28;20025;-64
2021/09/14 05:11:22;;;;;;;20.37;13.53;;;;;;;10.66;100.00;101279.66;2098831;28;20138;-64
2021/09/14 05:12:22;;;;;;;25.83;16.00;;;;;;;10.68;100.00;101293.53;2090026;28;20516;-64
2021/09/14 05:13:22;;;;;;;23.40;15.57;;;;;;;10.69;100.00;101290.00;2089972;28;20048;-64
2021/09/14 05:14:23;;;;;;;21.83;16.83;;;;;;;10.71;100.00;101298.59;2098592;28;20099;-64
2021/09/14 05:15:23;;;;;;;21.40;15.07;;;;;;;10.72;100.00;101299.47;2098768;28;20036;-64
2021/09/14 05:16:24;;;;;;;22.90;15.27;;;;;;;10.71;100.00;101297.78;2098701;28;20032;-63
2021/09/14 05:17:24;;;;;;;20.42;15.00;;;;;;;10.71;100.00;101301.22;2089830;28;20029;-64
2021/09/14 05:18:25;;;;;;;24.43;16.60;;;;;;;10.71;100.00;101297.78;2081521;28;20027;-64
2021/09/14 05:19:33;;;;;;;19.77;15.57;;;;;;;10.72;100.00;101292.50;2089708;28;20032;-65
2021/09/14 05:20:33;;;;;;;26.38;17.08;;;;;;;10.76;100.00;101301.94;2089452;28;20110;-65
2021/09/14 05:21:33;;;;;;;21.00;16.30;;;;;;;10.76;100.00;101299.31;2089804;28;20135;-64
2021/09/14 05:22:34;;;;;;;24.00;18.13;;;;;;;10.77;100.00;101293.19;2098098;28;20111;-64
2021/09/14 05:23:34;;;;;;;20.33;15.30;;;;;;;10.79;100.00;101294.00;2089728;28;20379;-64
2021/09/14 05:24:35;;;;;;;20.00;16.20;;;;;;;10.82;100.00;101296.47;2089872;28;20065;-64
2021/09/14 05:25:35;;;;;;;20.03;15.43;;;;;;;10.82;100.00;101295.63;2098510;28;20021;-64
2021/09/14 05:26:35;;;;;;;22.87;18.87;;;;;;;10.84;100.00;101295.59;2098661;28;20069;-65
2021/09/14 05:27:36;;;;;;;22.80;14.33;;;;;;;10.82;100.00;101296.47;2098716;28;20458;-65
2021/09/14 05:28:36;;;;;;;25.43;14.70;;;;;;;10.83;100.00;101292.09;2098831;28;20009;-64
2021/09/14 05:29:36;;;;;;;19.17;13.60;;;;;;;10.85;100.00;101289.44;2098679;28;20069;-65
2021/09/14 05:30:37;;;;;;;21.53;15.20;;;;;;;10.87;100.00;101290.22;2089827;28;20021;-65